Time;durP1;ratioP1;P1;durP2;ratioP2;P2;SDS_P1;SDS_P2;PMS_P1;PMS_P2;Temp;Humidity;BMP_temperature;BMP_pressure;BME280_temperature;BME280_humidity;BME280_pressure;Samples;Min_cycle;Max_cycle;Signal;HPM_P1;HPM_P2
2021/01/07 00:00:21;;;;;;;6.10;5.40;;;5.20;48.00;;;;;;5013240;28;20175;-65
2021/01/07 00:02:46;;;;;;;5.50;5.10;;;5.30;47.10;;;;;;5013265;28;20543;-65
2021/01/07 00:05:12;;;;;;;5.40;5.00;;;5.20;48.50;;;;;;5013091;28;20517;-66
2021/01/07 00:07:38;;;;;;;4.83;4.43;;;5.40;47.10;;;;;;5012912;28;20172;-65
2021/01/07 00:10:04;;;;;;;4.50;4.20;;;5.50;48.70;;;;;;5013030;28;20449;-65
2021/01/07 00:12:30;;;;;;;5.13;4.73;;;5.80;46.50;;;;;;5012920;28;20182;-65
2021/01/07 00:14:56;;;;;;;5.10;4.67;;;5.90;46.40;;;;;;5012893;28;20431;-66
2021/01/07 00:17:21;;;;;;;4.90;4.50;;;6.10;44.50;;;;;;5011614;28;20188;-65
2021/01/07 00:19:47;;;;;;;5.53;5.13;;;5.90;44.90;;;;;;5012969;28;20184;-65
2021/01/07 00:22:12;;;;;;;5.57;5.07;;;5.60;46.20;;;;;;5012945;28;20197;-65
2021/01/07 00:24:38;;;;;;;5.23;4.73;;;5.70;46.10;;;;;;5012741;28;20562;-66
2021/01/07 00:27:03;;;;;;;5.43;5.03;;;6.00;45.80;;;;;;5012801;28;20173;-65
2021/01/07 00:29:29;;;;;;;5.30;4.87;;;5.90;44.80;;;;;;5013179;28;20179;-65
2021/01/07 00:31:54;;;;;;;5.23;4.83;;;5.90;44.40;;;;;;5012881;28;20180;-65
2021/01/07 00:34:21;;;;;;;5.73;5.13;;;5.90;44.30;;;;;;5012567;28;20694;-66
2021/01/07 00:36:52;;;;;;;6.03;5.57;;;5.80;45.10;;;;;;5012422;28;20600;-66
2021/01/07 00:39:18;;;;;;;5.50;5.10;;;5.70;45.20;;;;;;5012235;28;20396;-65
2021/01/07 00:41:43;;;;;;;5.70;5.30;;;5.60;45.60;;;;;;5012494;28;20850;-65
2021/01/07 00:44:08;;;;;;;6.47;5.97;;;5.50;46.20;;;;;;5012301;28;20193;-66
2021/01/07 00:46:34;;;;;;;5.37;4.97;;;5.70;46.20;;;;;;5012466;28;20729;-65
2021/01/07 00:48:59;;;;;;;5.67;5.27;;;5.70;45.70;;;;;;5012209;28;20212;-65
2021/01/07 00:51:32;;;;;;;6.57;5.87;;;5.60;45.80;;;;;;5012267;28;20183;-66
2021/01/07 00:53:58;;;;;;;6.30;5.80;;;5.50;46.30;;;;;;5012117;28;20549;-65
2021/01/07 00:56:24;;;;;;;5.77;5.27;;;5.60;45.90;;;;;;5012304;28;20408;-65
2021/01/07 00:58:49;;;;;;;6.07;5.57;;;5.60;45.70;;;;;;5011933;28;21075;-66
2021/01/07 01:01:15;;;;;;;6.77;6.27;;;5.50;46.40;;;;;;5012194;28;20175;-65
2021/01/07 01:03:40;;;;;;;6.40;5.90;;;5.60;46.40;;;;;;5012042;28;20232;-65
2021/01/07 01:06:06;;;;;;;6.00;5.50;;;5.70;46.20;;;;;;5012191;28;20196;-66
2021/01/07 01:08:31;;;;;;;5.37;4.97;;;5.60;46.30;;;;;;5012157;28;20278;-65
2021/01/07 01:10:57;;;;;;;6.47;5.97;;;5.90;45.50;;;;;;5012008;28;20173;-65
2021/01/07 01:13:22;;;;;;;5.87;5.37;;;5.90;45.10;;;;;;5011830;28;20204;-66
2021/01/07 01:15:48;;;;;;;7.63;5.80;;;5.60;45.20;;;;;;5011763;28;20195;-65
2021/01/07 01:18:13;;;;;;;6.00;5.50;;;5.30;46.80;;;;;;5011629;28;20509;-65
2021/01/07 01:20:39;;;;;;;5.77;5.30;;;5.50;47.00;;;;;;5011794;28;20221;-65
2021/01/07 01:23:06;;;;;;;6.30;5.83;;;5.50;45.90;;;;;;5011691;28;20271;-66
2021/01/07 01:25:31;;;;;;;5.83;5.43;;;5.40;46.60;;;;;;5011511;28;20262;-65
2021/01/07 01:27:57;;;;;;;5.83;5.43;;;5.40;47.00;;;;;;5011444;28;20420;-65
2021/01/07 01:30:23;;;;;;;5.40;5.00;;;5.40;46.40;;;;;;5011633;28;20242;-65
2021/01/07 01:32:48;;;;;;;6.60;6.00;;;5.30;46.20;;;;;;5011691;28;20466;-65
2021/01/07 01:35:14;;;;;;;6.57;6.00;;;5.40;46.50;;;;;;5011492;28;20568;-65
2021/01/07 01:37:41;;;;;;;5.97;5.50;;;5.60;45.70;;;;;;5011403;28;20176;-65
2021/01/07 01:40:11;;;;;;;5.60;5.10;;;5.50;45.40;;;;;;5011488;28;20682;-65
2021/01/07 01:42:37;;;;;;;5.70;5.20;;;5.60;45.60;;;;;;5011695;28;20737;-65
2021/01/07 01:45:04;;;;;;;6.50;6.00;;;5.50;45.70;;;;;;5011741;28;20482;-65
2021/01/07 01:47:30;;;;;;;5.80;5.20;;;5.60;45.50;;;;;;5011239;28;20177;-65
2021/01/07 01:49:56;;;;;;;6.50;6.00;;;5.60;45.50;;;;;;5011405;28;20408;-65
2021/01/07 01:52:23;;;;;;;5.80;5.40;;;5.60;45.50;;;;;;5011443;28;20448;-65
2021/01/07 01:54:49;;;;;;;6.23;5.73;;;5.50;45.70;;;;;;5011236;28;20620;-65
2021/01/07 01:57:16;;;;;;;6.33;5.77;;;5.80;45.20;;;;;;5011092;28;20492;-65
2021/01/07 01:59:42;;;;;;;5.43;5.03;;;5.80;45.30;;;;;;5011323;28;20276;-65
2021/01/07 02:02:17;;;;;;;6.37;5.80;;;5.60;45.40;;;;;;5011372;28;20563;-65
2021/01/07 02:04:46;;;;;;;6.10;5.63;;;5.60;45.00;;;;;;5011069;28;20498;-66
2021/01/07 02:07:24;;;;;;;6.20;5.70;;;5.70;44.60;;;;;;5011155;28;20420;-65
2021/01/07 02:09:50;;;;;;;5.47;4.97;;;5.60;45.60;;;;;;5011477;28;20473;-65
2021/01/07 02:12:16;;;;;;;5.90;5.50;;;5.80;46.00;;;;;;5011189;28;20417;-65
2021/01/07 02:14:44;;;;;;;6.13;5.63;;;5.90;44.70;;;;;;5011092;28;20681;-65
2021/01/07 02:17:10;;;;;;;6.50;6.00;;;5.80;44.40;;;;;;5011019;28;20495;-65
2021/01/07 02:19:36;;;;;;;6.50;6.00;;;5.80;44.60;;;;;;5010969;28;20903;-66
2021/01/07 02:22:01;;;;;;;6.20;5.60;;;5.90;44.20;;;;;;5010994;28;20499;-66
2021/01/07 02:24:28;;;;;;;6.10;5.60;;;5.90;44.70;;;;;;5010829;28;20938;-66
2021/01/07 02:26:57;;;;;;;6.27;5.67;;;5.60;45.10;;;;;;5011275;28;20589;-65
2021/01/07 02:29:23;;;;;;;5.93;5.43;;;5.70;45.00;;;;;;5010903;28;20415;-65
2021/01/07 02:31:48;;;;;;;7.00;6.40;;;5.60;45.10;;;;;;5011328;28;20419;-65
2021/01/07 02:34:14;;;;;;;6.13;5.63;;;5.60;45.40;;;;;;5011240;28;20250;-66
2021/01/07 02:36:39;;;;;;;5.53;5.07;;;5.60;45.50;;;;;;5010849;28;20169;-65
2021/01/07 02:39:05;;;;;;;5.90;5.40;;;5.80;44.40;;;;;;5010785;28;20197;-65
2021/01/07 02:41:30;;;;;;;6.63;6.03;;;5.70;44.50;;;;;;5010889;28;20182;-65
2021/01/07 02:43:56;;;;;;;5.50;5.00;;;5.80;44.60;;;;;;5010567;28;20223;-65
2021/01/07 02:46:21;;;;;;;6.87;6.27;;;5.30;46.70;;;;;;5010821;28;20706;-65
2021/01/07 02:48:47;;;;;;;6.17;5.67;;;5.40;45.40;;;;;;5010676;28;20212;-65
2021/01/07 02:51:12;;;;;;;6.10;5.50;;;5.40;45.30;;;;;;5010734;28;20613;-65
2021/01/07 02:53:37;;;;;;;6.47;5.97;;;5.40;45.10;;;;;;5010674;28;20702;-65
2021/01/07 02:56:03;;;;;;;5.90;5.40;;;5.30;45.60;;;;;;5010653;28;20204;-66
2021/01/07 02:58:29;;;;;;;6.03;5.60;;;4.90;46.80;;;;;;5010480;28;20203;-65
2021/01/07 03:00:54;;;;;;;6.13;5.63;;;5.10;46.70;;;;;;5012023;28;20181;-65
2021/01/07 03:03:20;;;;;;;5.80;5.30;;;5.00;47.20;;;;;;5014261;28;20177;-65
2021/01/07 03:05:45;;;;;;;7.83;6.00;;;5.10;46.90;;;;;;5014034;28;20229;-65
2021/01/07 03:08:11;;;;;;;6.30;5.70;;;5.10;46.80;;;;;;5014185;28;20308;-65
2021/01/07 03:10:36;;;;;;;5.47;5.07;;;4.90;48.10;;;;;;5014235;28;20174;-65
2021/01/07 03:13:02;;;;;;;6.33;5.83;;;4.70;47.60;;;;;;5014168;28;20199;-65
2021/01/07 03:15:27;;;;;;;6.33;5.73;;;4.60;47.90;;;;;;5014168;28;20774;-66
2021/01/07 03:17:53;;;;;;;5.33;4.93;;;4.80;47.10;;;;;;5013857;28;20180;-65
2021/01/07 03:20:18;;;;;;;6.27;5.77;;;4.90;47.00;;;;;;5014032;28;20185;-65
2021/01/07 03:22:44;;;;;;;5.17;4.80;;;4.90;48.20;;;;;;5014103;28;20172;-66
2021/01/07 03:25:10;;;;;;;5.07;4.70;;;5.00;45.50;;;;;;5013805;28;20215;-65
2021/01/07 03:27:37;;;;;;;5.40;4.90;;;4.80;46.80;;;;;;5013806;28;20179;-66
2021/01/07 03:30:06;;;;;;;4.40;4.10;;;4.80;47.00;;;;;;5013839;28;20417;-66
2021/01/07 03:32:32;;;;;;;4.93;4.53;;;4.80;47.10;;;;;;5013726;28;20416;-66
2021/01/07 03:34:58;;;;;;;4.27;3.97;;;4.70;47.10;;;;;;5013694;28;20798;-65
2021/01/07 03:37:23;;;;;;;3.70;3.40;;;4.80;46.90;;;;;;5013989;28;20257;-65
2021/01/07 03:39:49;;;;;;;4.50;4.10;;;5.10;46.00;;;;;;5013750;28;20169;-66
2021/01/07 03:42:14;;;;;;;4.50;4.20;;;5.00;45.80;;;;;;5013635;28;20181;-66
2021/01/07 03:44:40;;;;;;;3.43;3.23;;;5.00;44.60;;;;;;5013541;28;20693;-65
2021/01/07 03:47:05;;;;;;;4.50;4.00;;;5.10;45.80;;;;;;5013311;28;20274;-65
2021/01/07 03:49:31;;;;;;;3.97;3.70;;;5.10;44.60;;;;;;5013070;28;20177;-65
2021/01/07 03:51:56;;;;;;;4.57;4.23;;;5.20;44.90;;;;;;5013306;28;20188;-65
2021/01/07 03:54:22;;;;;;;4.30;3.90;;;5.40;44.80;;;;;;5013268;28;20211;-65
2021/01/07 03:56:47;;;;;;;4.27;3.97;;;5.40;44.50;;;;;;5013084;28;20204;-66
2021/01/07 03:59:13;;;;;;;3.33;3.13;;;5.50;44.70;;;;;;5013203;28;20262;-66
2021/01/07 04:01:38;;;;;;;3.90;3.60;;;5.60;43.20;;;;;;5013050;28;20532;-65
2021/01/07 04:04:04;;;;;;;4.47;4.17;;;5.30;43.70;;;;;;5012746;28;20202;-65
2021/01/07 04:06:29;;;;;;;3.60;3.30;;;5.10;45.20;;;;;;5012786;28;20177;-65
2021/01/07 04:08:55;;;;;;;4.27;3.97;;;5.50;45.10;;;;;;5012903;28;20284;-65
2021/01/07 04:11:20;;;;;;;4.03;3.73;;;5.70;44.00;;;;;;5013053;28;20187;-65
2021/01/07 04:13:46;;;;;;;4.00;3.70;;;5.60;43.50;;;;;;5012061;28;20569;-65
2021/01/07 04:16:13;;;;;;;3.87;3.57;;;5.30;43.20;;;;;;5013041;28;20208;-65
2021/01/07 04:18:38;;;;;;;3.50;3.20;;;5.00;44.80;;;;;;5012857;28;20173;-65
2021/01/07 04:21:04;;;;;;;3.53;3.23;;;4.50;45.60;;;;;;5013097;28;20405;-66
2021/01/07 04:23:29;;;;;;;4.10;3.80;;;4.60;47.10;;;;;;5012763;28;20592;-65
2021/01/07 04:25:55;;;;;;;4.20;3.90;;;4.60;47.70;;;;;;5012885;28;20209;-65
2021/01/07 04:28:21;;;;;;;3.70;3.40;;;4.70;46.40;;;;;;5012710;28;20204;-65
2021/01/07 04:30:46;;;;;;;4.70;4.40;;;4.80;46.70;;;;;;5012655;28;20177;-66
2021/01/07 04:33:12;;;;;;;4.03;3.73;;;5.10;46.00;;;;;;5012750;28;20231;-65
2021/01/07 04:35:38;;;;;;;3.63;3.33;;;5.30;44.50;;;;;;5012481;28;20695;-66
2021/01/07 04:38:04;;;;;;;3.90;3.60;;;5.30;44.30;;;;;;5012451;28;20351;-65
2021/01/07 04:40:29;;;;;;;3.87;3.57;;;5.30;43.60;;;;;;5012537;28;20416;-65
2021/01/07 04:42:56;;;;;;;3.60;3.30;;;5.10;45.00;;;;;;5012428;28;20183;-65
2021/01/07 04:45:22;;;;;;;3.80;3.50;;;5.20;44.60;;;;;;5012346;28;20205;-65
2021/01/07 04:47:49;;;;;;;3.97;3.30;;;5.10;44.80;;;;;;5012152;28;20438;-65
2021/01/07 04:50:15;;;;;;;4.07;3.77;;;5.40;44.80;;;;;;5012380;28;20415;-66
2021/01/07 04:52:41;;;;;;;4.03;3.70;;;5.30;43.60;;;;;;5012372;28;20415;-65
2021/01/07 04:55:08;;;;;;;4.13;3.90;;;5.20;44.60;;;;;;5012136;28;20432;-65
2021/01/07 04:57:34;;;;;;;4.03;3.73;;;5.50;43.80;;;;;;5011950;28;20421;-65
2021/01/07 05:00:00;;;;;;;4.00;3.70;;;5.10;43.80;;;;;;5012005;28;20414;-65
2021/01/07 05:02:27;;;;;;;4.10;3.80;;;5.20;44.40;;;;;;5011904;28;20422;-65
2021/01/07 05:04:53;;;;;;;4.57;4.00;;;5.30;43.60;;;;;;5011913;28;20231;-66
2021/01/07 05:07:22;;;;;;;3.73;3.43;;;5.20;45.20;;;;;;5011804;28;20420;-66
2021/01/07 05:09:59;;;;;;;3.87;3.60;;;5.20;44.00;;;;;;5011985;28;20416;-66
2021/01/07 05:12:24;;;;;;;4.33;4.03;;;5.40;44.00;;;;;;5012019;28;20787;-66
2021/01/07 05:14:50;;;;;;;4.33;4.03;;;5.60;43.90;;;;;;5011651;28;20475;-66
2021/01/07 05:17:16;;;;;;;4.47;4.13;;;5.70;42.60;;;;;;5011590;28;20254;-65
2021/01/07 05:19:42;;;;;;;4.70;4.40;;;5.40;43.80;;;;;;5011741;28;20180;-65
2021/01/07 05:22:08;;;;;;;4.70;4.30;;;5.60;43.70;;;;;;5011734;28;20408;-65
2021/01/07 05:24:34;;;;;;;4.30;4.00;;;5.50;43.30;;;;;;5011371;28;20831;-65
2021/01/07 05:27:12;;;;;;;5.10;4.70;;;5.30;43.40;;;;;;5011580;28;20427;-66
2021/01/07 05:29:39;;;;;;;5.17;4.67;;;5.50;44.00;;;;;;5011572;28;20415;-65
2021/01/07 05:32:07;;;;;;;4.77;4.37;;;5.70;43.40;;;;;;5007476;28;20412;-66
2021/01/07 05:34:53;;;;;;;4.40;4.10;;;5.80;43.80;;;;;;5009626;28;20475;-65
2021/01/07 05:37:19;;;;;;;4.60;4.23;;;5.90;42.80;;;;;;5011148;28;20514;-65
2021/01/07 05:39:47;;;;;;;4.60;4.20;;;5.90;42.60;;;;;;5011073;28;20416;-66
2021/01/07 05:42:13;;;;;;;6.37;5.87;;;6.00;42.80;;;;;;5010986;28;20887;-65
2021/01/07 05:44:44;;;;;;;5.07;4.67;;;5.70;42.80;;;;;;5010565;28;20493;-66
2021/01/07 05:47:21;;;;;;;5.10;4.70;;;5.40;43.60;;;;;;5010985;28;20467;-65
2021/01/07 05:49:47;;;;;;;5.37;4.97;;;5.20;44.20;;;;;;5010679;28;20424;-64
2021/01/07 05:52:14;;;;;;;4.70;4.40;;;5.50;44.20;;;;;;5011020;28;20840;-64
2021/01/07 05:54:39;;;;;;;7.43;5.23;;;5.60;43.50;;;;;;5010654;28;20460;-63
2021/01/07 05:57:07;;;;;;;6.10;5.33;;;5.20;44.00;;;;;;5010454;28;20414;-64
2021/01/07 05:59:36;;;;;;;6.10;5.57;;;5.10;45.60;;;;;;5011001;28;20173;-64
2021/01/07 06:02:04;;;;;;;5.50;5.00;;;5.20;45.10;;;;;;5010874;28;20847;-65
2021/01/07 06:04:33;;;;;;;6.17;5.60;;;5.70;43.10;;;;;;5010558;28;20536;-65
2021/01/07 06:07:00;;;;;;;5.53;5.13;;;5.70;42.50;;;;;;5010981;28;20420;-64
2021/01/07 06:09:30;;;;;;;4.73;4.43;;;5.50;43.20;;;;;;5010687;28;20428;-64
2021/01/07 06:11:59;;;;;;;6.50;5.90;;;5.30;42.70;;;;;;5010484;28;20411;-64
2021/01/07 06:14:25;;;;;;;5.90;5.37;;;5.30;44.30;;;;;;5010441;28;20468;-65
2021/01/07 06:16:56;;;;;;;6.83;5.47;;;5.30;43.60;;;;;;5010829;28;20408;-65
2021/01/07 06:19:40;;;;;;;5.63;5.17;;;5.50;43.30;;;;;;5010037;28;20403;-65
2021/01/07 06:22:14;;;;;;;10.60;6.13;;;5.50;43.40;;;;;;5010712;28;20411;-65
2021/01/07 06:24:41;;;;;;;6.63;5.13;;;5.60;43.50;;;;;;5010490;28;20482;-64
2021/01/07 06:27:26;;;;;;;6.90;6.30;;;5.60;43.10;;;;;;5010143;28;20507;-65
2021/01/07 06:29:59;;;;;;;6.57;5.97;;;5.60;43.10;;;;;;5010514;28;20446;-63
2021/01/07 06:32:28;;;;;;;7.63;6.70;;;5.70;43.60;;;;;;5010563;28;20416;-64
2021/01/07 06:34:55;;;;;;;6.40;5.80;;;5.70;42.70;;;;;;5010215;28;20482;-63
2021/01/07 06:37:36;;;;;;;6.30;5.70;;;5.20;43.30;;;;;;5014066;28;20410;-65
2021/01/07 06:40:05;;;;;;;6.73;6.10;;;5.10;44.20;;;;;;5014428;28;20412;-65
2021/01/07 06:42:33;;;;;;;7.67;6.93;;;5.10;43.80;;;;;;5013754;28;20991;-63
2021/01/07 06:44:59;;;;;;;7.83;7.10;;;5.10;45.10;;;;;;5014505;28;20437;-63
2021/01/07 06:47:25;;;;;;;7.97;7.27;;;4.80;45.20;;;;;;5014294;28;20896;-64
2021/01/07 06:49:51;;;;;;;8.03;6.90;;;4.80;45.70;;;;;;5013927;28;20425;-64
2021/01/07 06:52:21;;;;;;;8.27;7.47;;;4.90;44.80;;;;;;5014231;28;20181;-64
2021/01/07 06:54:47;;;;;;;6.20;5.70;;;5.10;45.60;;;;;;5014450;28;20526;-62
2021/01/07 06:57:14;;;;;;;7.03;6.43;;;5.30;59.30;;;;;;5013455;28;20420;-63
2021/01/07 06:59:58;;;;;;;7.30;6.70;;;5.60;50.90;;;;;;5014253;28;20220;-63
2021/01/07 07:02:24;;;;;;;8.03;6.80;;;7.10;64.60;;;;;;5014035;28;20421;-63
2021/01/07 07:05:08;;;;;;;7.67;6.97;;;7.20;48.80;;;;;;5013595;28;20466;-67
2021/01/07 07:07:41;;;;;;;8.23;7.43;;;7.50;43.80;;;;;;5013532;28;20419;-63
2021/01/07 07:10:19;;;;;;;7.83;7.13;;;7.60;41.90;;;;;;5013776;28;20412;-63
2021/01/07 07:12:52;;;;;;;7.83;7.03;;;7.40;37.30;;;;;;5013137;28;20420;-64
2021/01/07 07:15:25;;;;;;;8.57;7.80;;;6.70;39.90;;;;;;5013539;28;20422;-64
2021/01/07 07:17:56;;;;;;;9.80;9.00;;;6.20;42.50;;;;;;5013215;28;20885;-64
2021/01/07 07:20:26;;;;;;;8.00;7.30;;;6.20;43.10;;;;;;5013123;28;20507;-64
2021/01/07 07:22:52;;;;;;;7.57;6.87;;;6.20;43.30;;;;;;5013404;28;20468;-64
2021/01/07 07:25:23;;;;;;;8.00;7.30;;;6.20;42.10;;;;;;5013163;28;20743;-63
2021/01/07 07:27:54;;;;;;;8.77;7.87;;;6.10;42.10;;;;;;5012904;28;20514;-64
2021/01/07 07:30:32;;;;;;;8.50;7.43;;;6.10;42.30;;;;;;5013135;28;20412;-63
2021/01/07 07:32:59;;;;;;;8.30;7.50;;;6.00;41.60;;;;;;5013222;28;20408;-62
2021/01/07 07:35:31;;;;;;;8.73;7.90;;;6.10;41.80;;;;;;5011744;28;20474;-66
2021/01/07 07:37:56;;;;;;;8.83;7.97;;;5.90;42.70;;;;;;5011738;28;20424;-66
2021/01/07 07:40:37;;;;;;;9.50;8.60;;;6.00;41.70;;;;;;5013108;28;20404;-64
2021/01/07 07:43:05;;;;;;;9.13;8.33;;;5.60;43.00;;;;;;5012729;28;20408;-65
2021/01/07 07:45:32;;;;;;;9.73;8.73;;;5.70;44.60;;;;;;5013044;28;20427;-65
2021/01/07 07:47:59;;;;;;;10.20;7.40;;;5.90;43.00;;;;;;5012210;28;20511;-66
2021/01/07 07:50:29;;;;;;;8.33;7.43;;;5.80;42.80;;;;;;5012831;28;20839;-65
2021/01/07 07:53:04;;;;;;;7.90;7.10;;;5.70;43.00;;;;;;5012450;28;20404;-65
2021/01/07 07:55:37;;;;;;;9.40;8.50;;;5.70;44.00;;;;;;5012299;28;20424;-64
2021/01/07 07:58:16;;;;;;;8.40;7.63;;;5.70;43.40;;;;;;5012692;28;20479;-64
2021/01/07 08:00:53;;;;;;;11.13;8.67;;;5.70;43.40;;;;;;5013058;28;20404;-63
2021/01/07 08:03:25;;;;;;;8.40;7.60;;;5.70;43.70;;;;;;5013730;28;20403;-65
2021/01/07 08:05:51;;;;;;;10.30;9.30;;;5.70;43.00;;;;;;5013138;28;20645;-64
2021/01/07 08:08:29;;;;;;;12.23;8.40;;;5.70;43.10;;;;;;5012971;28;20411;-64
2021/01/07 08:10:56;;;;;;;11.00;7.93;;;5.60;43.30;;;;;;5013045;28;20416;-64
2021/01/07 08:13:25;;;;;;;9.40;7.43;;;5.60;43.10;;;;;;5012916;28;20505;-66
2021/01/07 08:15:53;;;;;;;8.57;7.67;;;5.80;42.50;;;;;;5012810;28;20900;-63
2021/01/07 08:18:24;;;;;;;8.33;7.53;;;5.60;43.10;;;;;;5012320;28;20507;-64
2021/01/07 08:20:51;;;;;;;7.67;6.90;;;5.80;43.00;;;;;;5012811;28;20409;-65
2021/01/07 08:23:18;;;;;;;8.60;7.80;;;5.70;42.40;;;;;;5012595;28;20427;-64
2021/01/07 08:25:47;;;;;;;7.93;7.17;;;5.50;43.60;;;;;;5012487;28;20451;-65
2021/01/07 08:28:20;;;;;;;9.63;8.83;;;5.40;44.60;;;;;;5012481;28;20447;-64
2021/01/07 08:30:52;;;;;;;8.93;8.07;;;5.40;45.40;;;;;;5012373;28;20446;-65
2021/01/07 08:33:21;;;;;;;8.90;7.87;;;5.40;45.00;;;;;;5012470;28;20454;-64
2021/01/07 08:35:47;;;;;;;7.93;7.20;;;5.10;44.80;;;;;;5012536;28;20899;-63
2021/01/07 08:38:23;;;;;;;7.47;6.77;;;5.00;46.20;;;;;;5012409;28;20920;-64
2021/01/07 08:40:49;;;;;;;8.70;7.80;;;5.20;44.40;;;;;;5012538;28;20419;-64
2021/01/07 08:43:15;;;;;;;8.90;8.13;;;5.30;44.50;;;;;;5011878;28;20798;-65
2021/01/07 08:45:40;;;;;;;7.97;7.27;;;5.00;46.00;;;;;;5012112;28;20523;-62
2021/01/07 08:48:07;;;;;;;8.83;7.77;;;5.40;45.70;;;;;;5012016;28;20270;-64
2021/01/07 08:50:33;;;;;;;9.37;8.47;;;5.60;44.10;;;;;;5011961;28;20185;-65
2021/01/07 08:52:59;;;;;;;7.47;6.70;;;5.70;43.90;;;;;;5012004;28;20599;-65
2021/01/07 08:55:44;;;;;;;8.20;7.40;;;5.50;43.80;;;;;;5012208;28;20439;-64
2021/01/07 08:58:10;;;;;;;10.27;9.23;;;5.70;41.60;;;;;;5011390;28;20405;-66
2021/01/07 09:00:36;;;;;;;7.27;6.57;;;5.70;42.50;;;;;;5011947;28;20482;-67
2021/01/07 09:03:02;;;;;;;7.30;6.60;;;6.10;42.00;;;;;;5012164;28;20584;-65
2021/01/07 09:05:29;;;;;;;7.33;6.70;;;5.80;41.40;;;;;;5012209;28;20195;-63
2021/01/07 09:08:10;;;;;;;7.43;6.73;;;5.70;42.30;;;;;;5011661;28;20419;-65
2021/01/07 09:10:36;;;;;;;8.00;7.30;;;5.50;41.70;;;;;;5011768;28;20411;-64
2021/01/07 09:13:25;;;;;;;6.67;6.07;;;5.50;43.60;;;;;;5011863;28;20413;-64
2021/01/07 09:15:51;;;;;;;7.83;7.13;;;5.20;43.00;;;;;;5011761;28;20514;-63
2021/01/07 09:18:20;;;;;;;7.63;6.80;;;5.20;42.80;;;;;;5011701;28;20449;-65
2021/01/07 09:20:46;;;;;;;7.80;7.10;;;5.30;44.20;;;;;;5011682;28;20262;-65
2021/01/07 09:23:16;;;;;;;7.33;6.60;;;5.60;41.80;;;;;;5011838;28;20778;-65
2021/01/07 09:25:43;;;;;;;8.73;7.13;;;5.80;42.00;;;;;;5011761;28;20499;-64
2021/01/07 09:28:09;;;;;;;7.47;6.80;;;5.70;42.00;;;;;;5011557;28;20448;-65
2021/01/07 09:30:35;;;;;;;7.03;6.33;;;5.90;41.70;;;;;;5011648;28;21132;-65
2021/01/07 09:33:01;;;;;;;11.53;6.97;;;5.90;41.80;;;;;;5011496;28;20217;-65
2021/01/07 09:35:27;;;;;;;6.70;6.17;;;6.00;42.50;;;;;;5011505;28;20201;-65
2021/01/07 09:37:53;;;;;;;7.77;7.07;;;5.90;41.10;;;;;;5011729;28;20419;-64
2021/01/07 09:40:19;;;;;;;7.03;6.33;;;6.20;40.70;;;;;;5011796;28;20407;-65
2021/01/07 09:42:45;;;;;;;7.63;7.03;;;6.20;40.90;;;;;;5012134;28;20172;-65
2021/01/07 09:45:11;;;;;;;8.13;7.40;;;6.00;42.80;;;;;;5010806;28;20427;-64
2021/01/07 09:47:38;;;;;;;7.43;6.80;;;5.90;42.20;;;;;;5011163;28;20593;-65
2021/01/07 09:50:08;;;;;;;8.40;7.70;;;5.80;43.20;;;;;;5011102;28;20411;-66
2021/01/07 09:52:34;;;;;;;7.40;6.73;;;5.70;41.80;;;;;;5011173;28;20413;-66
2021/01/07 09:55:00;;;;;;;7.63;7.00;;;5.80;41.10;;;;;;5011086;28;20461;-64
2021/01/07 09:57:26;;;;;;;8.10;7.30;;;5.60;42.60;;;;;;5010995;28;20170;-65
2021/01/07 09:59:51;;;;;;;9.07;8.20;;;5.70;42.80;;;;;;5011168;28;20452;-65
2021/01/07 10:02:17;;;;;;;7.90;7.10;;;5.70;42.10;;;;;;5010995;28;20185;-64
2021/01/07 10:04:44;;;;;;;8.23;7.53;;;5.90;42.00;;;;;;5010898;28;20236;-65
2021/01/07 10:07:10;;;;;;;7.77;6.97;;;5.90;42.50;;;;;;5010869;28;20584;-65
2021/01/07 10:09:35;;;;;;;7.07;6.47;;;6.10;41.70;;;;;;5010599;28;20442;-65
2021/01/07 10:12:02;;;;;;;9.70;8.70;;;6.10;40.90;;;;;;5010389;28;20446;-66
2021/01/07 10:14:29;;;;;;;9.13;8.30;;;5.70;41.90;;;;;;5011045;28;20487;-65
2021/01/07 10:16:57;;;;;;;9.87;8.73;;;5.90;42.80;;;;;;5010748;28;20415;-65
2021/01/07 10:19:25;;;;;;;8.73;7.80;;;5.90;42.40;;;;;;5012655;28;21005;-65
2021/01/07 10:21:59;;;;;;;9.60;8.70;;;5.90;41.50;;;;;;5030568;28;20413;-65
2021/01/07 10:24:25;;;;;;;9.07;7.87;;;6.00;42.40;;;;;;5030267;28;20532;-65
2021/01/07 10:26:57;;;;;;;9.10;8.30;;;6.00;42.00;;;;;;5030389;28;20501;-65
2021/01/07 10:29:23;;;;;;;14.60;12.10;;;6.20;42.00;;;;;;5030266;28;20774;-66
2021/01/07 10:31:48;;;;;;;8.90;8.10;;;6.30;41.20;;;;;;5030224;28;20410;-65
2021/01/07 10:34:15;;;;;;;9.07;8.27;;;6.50;40.90;;;;;;5030191;28;20214;-66
2021/01/07 10:36:41;;;;;;;8.37;7.57;;;6.30;40.20;;;;;;5030554;28;20164;-65
2021/01/07 10:39:07;;;;;;;8.60;7.90;;;6.00;41.20;;;;;;5028656;28;20444;-67
2021/01/07 10:41:35;;;;;;;9.20;8.30;;;5.90;41.40;;;;;;5030353;28;20809;-65
2021/01/07 10:44:01;;;;;;;8.53;7.73;;;6.10;40.90;;;;;;5030183;28;20651;-65
2021/01/07 10:46:27;;;;;;;8.27;7.47;;;6.10;40.40;;;;;;5030480;28;20492;-66
2021/01/07 10:48:54;;;;;;;8.07;7.37;;;6.20;40.50;;;;;;5030104;28;20422;-66
2021/01/07 10:51:24;;;;;;;8.20;7.50;;;6.30;40.30;;;;;;5030296;28;20914;-66
2021/01/07 10:54:01;;;;;;;9.10;7.73;;;6.30;40.60;;;;;;5030113;28;20459;-65
2021/01/07 10:57:02;;;;;;;9.83;8.17;;;6.20;41.20;;;;;;5018373;28;20423;-65
2021/01/07 10:59:52;;;;;;;9.10;8.30;;;6.30;39.50;;;;;;5010291;28;20411;-65
2021/01/07 11:02:44;;;;;;;8.60;7.77;;;6.20;41.00;;;;;;5010387;28;20454;-66
2021/01/07 11:05:15;;;;;;;9.10;8.20;;;6.10;39.50;;;;;;5009715;28;20445;-68
2021/01/07 11:08:14;;;;;;;8.97;8.13;;;6.10;40.30;;;;;;5010112;28;20444;-65
2021/01/07 11:10:56;;;;;;;6.70;6.10;;;5.90;40.40;;;;;;5010021;28;20423;-67
2021/01/07 11:13:23;;;;;;;9.00;8.20;;;5.90;40.30;;;;;;5009642;28;20954;-67
2021/01/07 11:15:55;;;;;;;10.37;9.33;;;5.80;40.60;;;;;;5010240;28;20459;-66
2021/01/07 11:18:33;;;;;;;8.03;7.23;;;5.80;41.10;;;;;;5009985;28;20407;-69
2021/01/07 11:21:04;;;;;;;6.50;5.90;;;6.00;39.30;;;;;;5009469;28;20506;-67
2021/01/07 11:23:31;;;;;;;8.07;7.27;;;6.30;37.90;;;;;;5013536;28;20410;-66
2021/01/07 11:25:57;;;;;;;7.30;6.60;;;6.10;38.50;;;;;;5013400;28;20436;-66
2021/01/07 11:28:22;;;;;;;8.07;6.97;;;6.40;38.50;;;;;;5012948;28;20780;-65
2021/01/07 11:30:49;;;;;;;8.30;7.50;;;6.50;38.00;;;;;;5013482;28;20509;-65
2021/01/07 11:33:16;;;;;;;7.30;6.70;;;6.70;37.00;;;;;;5013251;28;20206;-64
2021/01/07 11:35:44;;;;;;;9.17;8.27;;;7.00;37.10;;;;;;5013070;28;20420;-64
2021/01/07 11:38:22;;;;;;;9.33;7.97;;;6.70;36.20;;;;;;5013368;28;20447;-64
2021/01/07 11:40:56;;;;;;;7.40;6.70;;;6.60;38.30;;;;;;5013484;28;20969;-64
2021/01/07 11:43:37;;;;;;;6.93;6.30;;;6.80;37.40;;;;;;5013198;28;20430;-64
2021/01/07 11:46:03;;;;;;;7.30;6.60;;;6.70;36.60;;;;;;5013289;28;20435;-64
2021/01/07 11:48:32;;;;;;;7.20;6.60;;;6.60;37.60;;;;;;5013120;28;20428;-64
2021/01/07 11:51:02;;;;;;;8.07;7.37;;;6.50;38.60;;;;;;5013117;28;20412;-64
2021/01/07 11:53:29;;;;;;;8.20;7.50;;;6.60;37.10;;;;;;5012998;28;20886;-64
2021/01/07 11:55:57;;;;;;;7.60;6.80;;;5.90;37.40;;;;;;5012966;28;20960;-64
2021/01/07 11:58:24;;;;;;;6.63;6.03;;;6.00;38.40;;;;;;5012954;28;21081;-64
2021/01/07 12:00:56;;;;;;;7.37;6.63;;;6.10;37.90;;;;;;5013039;28;20416;-64
2021/01/07 12:03:33;;;;;;;7.53;6.83;;;6.00;39.30;;;;;;5012876;28;20923;-64
2021/01/07 12:06:07;;;;;;;8.07;7.37;;;6.20;38.30;;;;;;5012462;28;20480;-64
2021/01/07 12:08:46;;;;;;;6.20;5.60;;;6.10;38.40;;;;;;5012646;28;20415;-64
2021/01/07 12:11:20;;;;;;;7.30;6.60;;;6.30;38.20;;;;;;5012811;28;20457;-64
2021/01/07 12:13:58;;;;;;;7.73;6.93;;;6.50;39.00;;;;;;5012547;28;20521;-64
2021/01/07 12:16:36;;;;;;;7.40;6.70;;;6.50;37.10;;;;;;5012756;28;20407;-64
2021/01/07 12:19:02;;;;;;;8.93;8.03;;;6.30;38.20;;;;;;5012801;28;20400;-65
2021/01/07 12:21:29;;;;;;;7.57;6.87;;;6.40;38.50;;;;;;5012652;28;20474;-64
2021/01/07 12:23:56;;;;;;;7.50;6.80;;;5.90;38.50;;;;;;5012559;28;20605;-65
2021/01/07 12:26:22;;;;;;;9.53;8.53;;;6.20;39.40;;;;;;5012426;28;20426;-66
2021/01/07 12:28:51;;;;;;;7.87;7.27;;;6.50;39.10;;;;;;5012911;28;20961;-64
2021/01/07 12:31:18;;;;;;;10.30;8.23;;;6.50;38.70;;;;;;5012601;28;20412;-66
2021/01/07 12:34:19;;;;;;;8.23;7.43;;;6.60;37.90;;;;;;5011551;28;20470;-65
2021/01/07 12:37:03;;;;;;;8.60;7.90;;;6.60;39.40;;;;;;5012129;28;20415;-66
2021/01/07 12:39:50;;;;;;;7.63;6.90;;;6.50;39.10;;;;;;5012470;28;20404;-66
2021/01/07 12:42:22;;;;;;;8.80;7.90;;;6.50;38.20;;;;;;5012218;28;20906;-65
2021/01/07 12:44:48;;;;;;;8.40;7.60;;;6.50;39.10;;;;;;5012046;28;20441;-68
2021/01/07 12:47:14;;;;;;;9.07;8.17;;;6.10;39.00;;;;;;5011849;28;20894;-66
2021/01/07 12:49:43;;;;;;;8.03;7.23;;;6.10;39.40;;;;;;5012213;28;20422;-66
2021/01/07 12:52:09;;;;;;;8.50;7.70;;;6.20;39.40;;;;;;5012400;28;20183;-64
2021/01/07 12:54:36;;;;;;;8.73;8.00;;;6.20;39.00;;;;;;5012427;28;20455;-66
2021/01/07 12:57:10;;;;;;;8.60;7.87;;;6.30;40.30;;;;;;5012058;28;20415;-65
2021/01/07 12:59:44;;;;;;;8.97;8.10;;;6.20;40.20;;;;;;5011747;28;20400;-67
2021/01/07 13:02:25;;;;;;;37.37;28.77;;;6.40;39.60;;;;;;5011639;28;20480;-67
2021/01/07 13:04:58;;;;;;;9.23;8.40;;;6.60;39.20;;;;;;5011735;28;20435;-67